createdAt,value
2022-09-07T00:01:02.642Z,16.70
2022-09-07T00:03:29.966Z,16.70
2022-09-07T00:05:57.179Z,16.70
2022-09-07T00:08:25.328Z,16.70
2022-09-07T00:11:00.232Z,16.80
2022-09-07T00:13:28.875Z,16.80
2022-09-07T00:15:56.612Z,16.70
2022-09-07T00:18:23.627Z,16.60
2022-09-07T00:21:04.786Z,16.60
2022-09-07T00:23:32.109Z,16.50
2022-09-07T00:26:00.633Z,16.50
2022-09-07T00:28:27.722Z,16.50
2022-09-07T00:30:54.808Z,16.50
2022-09-07T00:33:21.903Z,16.40
2022-09-07T00:35:48.939Z,16.40
2022-09-07T00:38:15.891Z,16.50
2022-09-07T00:40:43.135Z,16.50
2022-09-07T00:43:14.810Z,16.50
2022-09-07T00:45:41.767Z,16.40
2022-09-07T00:48:16.983Z,16.30
2022-09-07T00:50:46.435Z,16.30
2022-09-07T00:53:15.294Z,16.30
2022-09-07T00:55:43.177Z,16.30
2022-09-07T00:58:10.234Z,16.40
2022-09-07T01:00:38.232Z,16.40
2022-09-07T01:03:05.794Z,16.40
2022-09-07T01:05:37.878Z,16.50
2022-09-07T01:08:05.602Z,16.50
2022-09-07T01:10:32.686Z,16.50
2022-09-07T01:13:00.357Z,16.50
2022-09-07T01:15:59.478Z,16.50
2022-09-07T01:18:57.252Z,16.50
2022-09-07T01:21:26.357Z,16.50
2022-09-07T01:23:59.101Z,16.50
2022-09-07T01:26:48.036Z,16.50
2022-09-07T01:29:19.408Z,16.50
2022-09-07T01:32:07.988Z,16.50
2022-09-07T01:34:35.043Z,16.50
2022-09-07T01:37:25.368Z,16.50
2022-09-07T01:40:05.931Z,16.50
2022-09-07T01:42:42.326Z,16.40
2022-09-07T01:45:11.507Z,16.40
2022-09-07T01:47:47.287Z,16.50
2022-09-07T01:50:21.231Z,16.60
2022-09-07T01:53:03.243Z,16.60
2022-09-07T01:55:32.081Z,16.60
2022-09-07T01:58:19.528Z,16.60
2022-09-07T02:00:49.335Z,16.50
2022-09-07T02:03:20.380Z,16.60
2022-09-07T02:05:54.179Z,16.50
2022-09-07T02:09:01.162Z,16.40
2022-09-07T02:11:40.811Z,16.40
2022-09-07T02:14:24.446Z,16.40
2022-09-07T02:17:00.866Z,16.40
2022-09-07T02:19:30.570Z,16.30
2022-09-07T02:22:03.764Z,16.30
2022-09-07T02:24:35.656Z,16.20
2022-09-07T02:27:07.872Z,16.10
2022-09-07T02:29:35.490Z,16.10
2022-09-07T02:32:02.707Z,16.00
2022-09-07T02:34:29.627Z,16.00
2022-09-07T02:36:56.542Z,16.10
2022-09-07T02:39:23.459Z,16.10
2022-09-07T02:41:50.535Z,16.10
2022-09-07T02:44:22.741Z,16.10
2022-09-07T02:46:54.437Z,16.10
2022-09-07T02:49:55.527Z,16.10
2022-09-07T02:52:47.346Z,16.10
2022-09-07T02:55:20.147Z,16.10
2022-09-07T02:58:06.025Z,16.00
2022-09-07T03:00:35.885Z,15.90
2022-09-07T03:03:52.017Z,15.80
2022-09-07T03:06:49.248Z,15.80
2022-09-07T03:09:21.046Z,15.80
2022-09-07T03:11:47.926Z,15.80
2022-09-07T03:14:26.087Z,15.90
2022-09-07T03:16:55.606Z,15.90
2022-09-07T03:19:22.549Z,15.90
2022-09-07T03:21:49.542Z,15.90
2022-09-07T03:24:16.588Z,15.90
2022-09-07T03:26:45.216Z,16.00
2022-09-07T03:29:12.559Z,16.00
2022-09-07T03:31:39.778Z,16.10
2022-09-07T03:34:07.351Z,16.10
2022-09-07T03:36:34.508Z,16.10
2022-09-07T03:39:01.766Z,16.00
2022-09-07T03:41:28.877Z,16.00
2022-09-07T03:43:55.844Z,16.00
2022-09-07T03:46:22.852Z,16.00
2022-09-07T03:48:50.462Z,16.00
2022-09-07T03:51:18.067Z,15.90
2022-09-07T03:53:46.189Z,15.90
2022-09-07T03:56:14.379Z,15.90
2022-09-07T03:58:41.305Z,16.00
2022-09-07T04:01:10.050Z,16.20
2022-09-07T04:03:37.325Z,16.30
2022-09-07T04:06:04.545Z,16.40
2022-09-07T04:08:32.772Z,16.40
2022-09-07T04:11:00.951Z,16.50
2022-09-07T04:13:28.360Z,16.60
2022-09-07T04:15:55.367Z,16.70
2022-09-07T04:18:22.416Z,16.70
2022-09-07T04:20:50.875Z,16.80
2022-09-07T04:23:20.841Z,16.90
2022-09-07T04:25:51.261Z,16.90
2022-09-07T04:28:18.792Z,16.90
2022-09-07T04:30:45.834Z,16.90
2022-09-07T04:33:13.191Z,16.90
2022-09-07T04:35:40.799Z,16.90
2022-09-07T04:38:15.014Z,16.90
2022-09-07T04:40:42.127Z,16.90
2022-09-07T04:43:09.756Z,16.80
2022-09-07T04:45:37.610Z,16.80
2022-09-07T04:48:04.904Z,16.80
2022-09-07T04:50:31.893Z,16.70
2022-09-07T04:52:58.789Z,16.70
2022-09-07T04:55:25.725Z,16.70
2022-09-07T04:57:52.687Z,16.60
2022-09-07T05:00:19.650Z,16.60
2022-09-07T05:02:46.622Z,16.60
2022-09-07T05:05:13.760Z,16.60
2022-09-07T05:07:40.998Z,16.50
2022-09-07T05:10:08.292Z,16.50
2022-09-07T05:12:35.257Z,16.40
2022-09-07T05:15:02.233Z,16.40
2022-09-07T05:17:31.162Z,16.30
2022-09-07T05:19:58.373Z,16.30
2022-09-07T05:22:25.400Z,16.30
2022-09-07T05:24:52.457Z,16.30
2022-09-07T05:27:19.557Z,16.30
2022-09-07T05:30:03.834Z,16.30
2022-09-07T05:32:32.183Z,16.30
2022-09-07T05:34:59.236Z,16.30
2022-09-07T05:37:26.165Z,16.30
2022-09-07T05:39:55.952Z,16.20
2022-09-07T05:42:23.024Z,16.20
2022-09-07T05:44:50.164Z,16.20
2022-09-07T05:47:17.091Z,16.20
2022-09-07T05:49:44.115Z,16.20
2022-09-07T05:52:11.135Z,16.20
2022-09-07T05:54:38.077Z,16.20
2022-09-07T05:57:05.444Z,16.20
2022-09-07T05:59:32.380Z,16.20
2022-09-07T06:02:00.080Z,16.20
2022-09-07T06:04:27.277Z,16.30
2022-09-07T06:12:28.511Z,17.00
2022-09-07T06:14:55.639Z,17.30
2022-09-07T06:17:22.647Z,17.70
2022-09-07T06:19:49.619Z,18.00
2022-09-07T06:22:16.554Z,18.20
2022-09-07T06:24:43.475Z,18.40
2022-09-07T06:27:10.539Z,18.70
2022-09-07T06:29:37.449Z,18.90
2022-09-07T06:34:51.578Z,19.40
2022-09-07T06:37:18.685Z,19.60
2022-09-07T06:39:45.812Z,19.90
2022-09-07T06:42:12.885Z,20.10
2022-09-07T06:44:43.856Z,20.40
2022-09-07T06:47:11.169Z,20.60
2022-09-07T06:49:38.076Z,20.50
2022-09-07T06:52:05.111Z,20.60
2022-09-07T06:55:01.998Z,20.80
2022-09-07T06:57:18.968Z,20.90
2022-09-07T06:59:45.907Z,20.90
2022-09-07T07:02:15.063Z,20.80
2022-09-07T07:04:42.088Z,21.10
2022-09-07T07:07:12.875Z,21.30
2022-09-07T07:09:40.052Z,21.10
2022-09-07T07:12:07.261Z,21.20
2022-09-07T07:14:37.181Z,21.50
2022-09-07T07:17:05.647Z,21.80
2022-09-07T07:19:32.619Z,22.10
2022-09-07T07:22:14.347Z,22.50
2022-09-07T07:24:46.515Z,22.60
2022-09-07T07:27:13.779Z,22.90
2022-09-07T07:29:40.708Z,23.10
2022-09-07T07:32:07.727Z,23.30
2022-09-07T07:34:34.686Z,23.00
2022-09-07T07:37:01.731Z,22.80
2022-09-07T07:42:15.660Z,23.40
2022-09-07T07:44:42.583Z,23.60
2022-09-07T07:47:10.156Z,23.50
2022-09-07T07:49:37.085Z,23.10
2022-09-07T07:54:53.325Z,23.70
2022-09-07T07:57:20.485Z,23.90
2022-09-07T07:59:47.352Z,23.40
2022-09-07T08:02:15.540Z,22.90
2022-09-07T08:04:42.687Z,22.50
2022-09-07T08:07:11.163Z,22.00
2022-09-07T08:09:42.937Z,22.30
2022-09-07T08:12:11.414Z,22.70
2022-09-07T08:14:42.052Z,23.10
2022-09-07T08:17:13.917Z,23.50
2022-09-07T08:19:41.020Z,24.00
2022-09-07T08:22:08.875Z,24.20
2022-09-07T08:24:35.753Z,24.40
2022-09-07T08:27:02.752Z,24.10
2022-09-07T08:29:33.552Z,24.20
2022-09-07T08:32:03.045Z,24.30
2022-09-07T08:34:29.995Z,24.10
2022-09-07T08:36:56.897Z,23.70
2022-09-07T08:39:23.803Z,23.20
2022-09-07T08:42:08.339Z,23.60
2022-09-07T08:44:38.409Z,23.40
2022-09-07T08:47:40.765Z,23.00
2022-09-07T08:50:11.261Z,23.20
2022-09-07T08:52:50.514Z,23.00
2022-09-07T08:55:34.097Z,23.20
2022-09-07T08:58:45.212Z,22.80
2022-09-07T09:04:16.903Z,22.40
2022-09-07T09:07:03.248Z,22.60
2022-09-07T09:09:51.931Z,22.50
2022-09-07T09:12:29.212Z,22.40
2022-09-07T09:15:40.582Z,23.10
2022-09-07T09:18:29.813Z,23.00
2022-09-07T09:20:57.216Z,23.00
2022-09-07T09:23:26.767Z,22.60
2022-09-07T09:25:55.362Z,22.70
2022-09-07T09:28:22.652Z,22.80
2022-09-07T09:30:50.280Z,23.00
2022-09-07T09:33:22.510Z,23.20
2022-09-07T09:35:51.019Z,23.40
2022-09-07T09:38:35.458Z,23.50
2022-09-07T09:41:15.350Z,23.60
2022-09-07T09:43:51.517Z,24.00
2022-09-07T09:46:40.712Z,24.10
2022-09-07T09:49:20.410Z,24.00
2022-09-07T09:54:42.853Z,23.60
2022-09-07T09:57:16.716Z,23.90
2022-09-07T10:00:02.745Z,23.90
2022-09-07T10:05:36.149Z,23.80
2022-09-07T10:08:04.674Z,23.50
2022-09-07T10:10:31.605Z,23.20
2022-09-07T10:12:58.725Z,23.30
2022-09-07T10:15:59.017Z,23.50
2022-09-07T10:18:35.630Z,23.60
2022-09-07T10:21:35.073Z,23.70
2022-09-07T10:24:05.032Z,23.50
2022-09-07T10:26:36.468Z,23.50
2022-09-07T10:29:14.478Z,23.70
2022-09-07T10:32:05.661Z,23.90
2022-09-07T10:35:10.274Z,23.80
2022-09-07T10:37:56.480Z,23.90
2022-09-07T10:40:33.993Z,23.80
2022-09-07T10:43:22.346Z,23.70
2022-09-07T10:45:52.533Z,23.70
2022-09-07T10:48:44.576Z,23.80
2022-09-07T10:51:18.216Z,23.90
2022-09-07T10:57:05.349Z,23.20
2022-09-07T11:00:14.077Z,23.20
2022-09-07T11:06:00.992Z,23.30
2022-09-07T11:14:24.514Z,23.20
2022-09-07T11:16:53.894Z,23.20
2022-09-07T11:19:36.262Z,23.20
2022-09-07T11:22:30.403Z,22.80
2022-09-07T11:28:12.617Z,23.10
2022-09-07T11:30:46.062Z,23.30
2022-09-07T11:33:16.211Z,23.60
2022-09-07T11:35:55.427Z,23.70
2022-09-07T11:38:25.975Z,23.40
2022-09-07T11:41:01.541Z,23.20
2022-09-07T11:43:35.193Z,23.10
2022-09-07T11:46:06.540Z,22.90
2022-09-07T11:48:34.315Z,22.60
2022-09-07T11:51:09.285Z,22.70
2022-09-07T11:53:38.242Z,22.70
2022-09-07T11:56:07.706Z,22.60
2022-09-07T11:59:12.351Z,22.60
2022-09-07T12:01:39.381Z,22.50
2022-09-07T12:04:46.734Z,22.60
2022-09-07T12:07:34.715Z,22.70
2022-09-07T12:10:23.364Z,22.70
2022-09-07T12:13:21.290Z,22.70
2022-09-07T12:15:57.528Z,23.20
2022-09-07T12:18:43.379Z,23.60
2022-09-07T12:21:40.672Z,23.80
2022-09-07T12:24:26.486Z,23.60
2022-09-07T12:26:53.490Z,23.70
2022-09-07T12:29:26.687Z,23.90
2022-09-07T12:34:59.337Z,23.90
2022-09-07T12:37:47.874Z,24.00
2022-09-07T12:40:33.442Z,24.00
2022-09-07T12:43:20.803Z,23.70
2022-09-07T12:45:51.709Z,23.80
2022-09-07T12:48:24.415Z,23.80
2022-09-07T12:50:59.712Z,23.50
2022-09-07T12:53:32.345Z,23.40
2022-09-07T12:56:25.723Z,23.40
2022-09-07T12:59:23.290Z,23.50
2022-09-07T13:02:05.375Z,23.60
2022-09-07T13:04:53.434Z,23.60
2022-09-07T13:07:44.409Z,23.60
2022-09-07T13:10:26.572Z,23.60
2022-09-07T13:12:54.400Z,23.30
2022-09-07T13:15:42.109Z,23.20
2022-09-07T13:18:27.877Z,23.00
2022-09-07T13:21:07.127Z,23.00
2022-09-07T13:23:45.771Z,23.00
2022-09-07T13:26:14.090Z,22.90
2022-09-07T13:28:56.358Z,22.90
2022-09-07T13:31:27.989Z,23.20
2022-09-07T13:33:55.042Z,23.10
2022-09-07T13:36:36.383Z,23.20
2022-09-07T13:39:06.511Z,23.30
2022-09-07T13:41:41.003Z,23.50
2022-09-07T13:44:20.420Z,23.60
2022-09-07T13:47:22.547Z,23.60
2022-09-07T13:50:27.065Z,23.60
2022-09-07T13:53:07.195Z,23.50
2022-09-07T13:55:57.684Z,23.10
2022-09-07T13:58:34.336Z,22.90
2022-09-07T14:01:06.202Z,22.90
2022-09-07T14:03:45.742Z,22.90
2022-09-07T14:06:22.027Z,22.90
2022-09-07T14:08:51.172Z,22.90
2022-09-07T14:11:19.541Z,23.00
2022-09-07T14:13:46.556Z,23.20
2022-09-07T14:16:13.486Z,23.20
2022-09-07T14:18:40.752Z,23.00
2022-09-07T14:21:09.638Z,23.20
2022-09-07T14:23:38.999Z,23.20
2022-09-07T14:26:17.218Z,23.00
2022-09-07T14:28:45.991Z,22.70
2022-09-07T14:31:15.152Z,22.70
2022-09-07T14:33:56.790Z,22.70
2022-09-07T14:36:47.451Z,22.80
2022-09-07T14:39:15.707Z,22.70
2022-09-07T14:41:43.422Z,22.50
2022-09-07T14:44:30.100Z,22.50
2022-09-07T14:46:57.857Z,22.50
2022-09-07T14:49:24.843Z,22.40
2022-09-07T14:51:52.535Z,22.40
2022-09-07T14:54:20.406Z,22.40
2022-09-07T14:57:02.567Z,22.30
2022-09-07T14:59:43.010Z,22.40
2022-09-07T15:02:19.304Z,22.40
2022-09-07T15:04:46.905Z,22.40
2022-09-07T15:07:39.175Z,22.50
2022-09-07T15:10:21.534Z,22.40
2022-09-07T15:13:44.220Z,22.40
2022-09-07T15:16:31.064Z,22.40
2022-09-07T15:19:02.281Z,22.10
2022-09-07T15:21:32.881Z,22.20
2022-09-07T15:24:00.602Z,22.10
2022-09-07T15:29:24.468Z,22.00
2022-09-07T15:32:02.414Z,22.00
2022-09-07T15:34:32.389Z,22.10
2022-09-07T15:37:00.837Z,22.20
2022-09-07T15:39:29.989Z,22.20
2022-09-07T15:41:58.189Z,22.20
2022-09-07T15:44:28.489Z,22.20
2022-09-07T15:49:49.294Z,22.10
2022-09-07T15:52:17.375Z,22.20
2022-09-07T15:54:44.399Z,21.90
2022-09-07T15:59:58.673Z,21.90
2022-09-07T16:05:12.926Z,21.80
2022-09-07T16:10:31.084Z,21.70
2022-09-07T16:13:02.810Z,21.60
2022-09-07T16:15:30.947Z,21.70
2022-09-07T16:17:58.695Z,21.80
2022-09-07T16:20:25.705Z,21.90
2022-09-07T16:25:39.760Z,22.10
2022-09-07T16:28:07.161Z,22.10
2022-09-07T16:30:34.302Z,22.00
2022-09-07T16:33:01.294Z,22.00
2022-09-07T16:35:28.239Z,21.90
2022-09-07T16:40:42.133Z,21.70
2022-09-07T16:43:10.002Z,21.60
2022-09-07T16:48:23.890Z,21.50
2022-09-07T16:50:55.411Z,21.40
2022-09-07T16:53:28.490Z,21.40
2022-09-07T16:56:06.401Z,21.50
2022-09-07T16:58:36.220Z,21.50
2022-09-07T17:01:05.189Z,21.50
2022-09-07T17:03:32.301Z,21.50
2022-09-07T17:06:02.653Z,21.50
2022-09-07T17:08:29.810Z,21.40
2022-09-07T17:11:00.983Z,21.40
2022-09-07T17:13:28.413Z,21.40
2022-09-07T17:15:55.545Z,21.40
2022-09-07T17:19:28.958Z,21.40
2022-09-07T17:21:09.782Z,21.40
2022-09-07T17:23:45.618Z,21.40
2022-09-07T17:26:18.092Z,21.20
2022-09-07T17:28:45.891Z,21.10
2022-09-07T17:34:24.239Z,21.00
2022-09-07T17:36:51.549Z,21.00
2022-09-07T17:39:19.567Z,21.00
2022-09-07T17:41:47.856Z,20.90
2022-09-07T17:44:14.816Z,20.90
2022-09-07T17:46:41.737Z,20.80
2022-09-07T17:49:16.653Z,20.80
2022-09-07T17:51:44.023Z,20.70
2022-09-07T17:54:13.274Z,20.70
2022-09-07T17:56:40.880Z,20.70
2022-09-07T18:01:55.408Z,20.70
2022-09-07T18:04:22.932Z,20.70
2022-09-07T18:06:50.126Z,20.70
2022-09-07T18:09:17.389Z,20.60
2022-09-07T18:11:46.328Z,20.60
2022-09-07T18:14:14.800Z,20.60
2022-09-07T18:16:42.660Z,20.60
2022-09-07T18:19:11.136Z,20.50
2022-09-07T18:21:38.287Z,20.50
2022-09-07T18:24:07.644Z,20.40
2022-09-07T18:26:36.370Z,20.50
2022-09-07T18:29:04.056Z,20.50
2022-09-07T18:31:31.953Z,20.50
2022-09-07T18:33:59.093Z,20.50
2022-09-07T18:36:26.363Z,20.50
2022-09-07T18:38:53.314Z,20.30
2022-09-07T18:41:20.579Z,20.30
2022-09-07T18:43:48.049Z,20.20
2022-09-07T18:46:16.556Z,20.10
2022-09-07T18:48:43.629Z,20.10
2022-09-07T18:51:10.847Z,20.00
2022-09-07T18:53:37.939Z,20.00
2022-09-07T18:56:06.274Z,20.00
2022-09-07T18:58:34.235Z,20.00
2022-09-07T19:01:05.568Z,20.00
2022-09-07T19:03:33.261Z,20.00
2022-09-07T19:06:08.015Z,20.00
2022-09-07T19:08:37.033Z,20.00
2022-09-07T19:11:14.944Z,20.00
2022-09-07T19:13:41.933Z,19.90
2022-09-07T19:16:12.742Z,19.90
2022-09-07T19:18:43.009Z,19.90
2022-09-07T19:21:13.605Z,19.80
2022-09-07T19:23:43.563Z,19.70
2022-09-07T19:26:10.539Z,19.70
2022-09-07T19:28:37.529Z,19.70
2022-09-07T19:31:06.068Z,19.70
2022-09-07T19:33:35.102Z,19.80
2022-09-07T19:36:05.806Z,19.70
2022-09-07T19:38:32.871Z,19.60
2022-09-07T19:41:00.339Z,19.60
2022-09-07T19:43:30.240Z,19.60
2022-09-07T19:45:57.190Z,19.60
2022-09-07T19:48:24.220Z,19.60
2022-09-07T19:50:51.204Z,19.60
2022-09-07T19:53:18.711Z,19.60
2022-09-07T19:55:45.678Z,19.60
2022-09-07T19:58:12.726Z,19.60
2022-09-07T20:00:41.762Z,19.50
2022-09-07T20:03:10.564Z,19.50
2022-09-07T20:05:40.937Z,19.50
2022-09-07T20:08:08.822Z,19.40
2022-09-07T20:10:36.161Z,19.40
2022-09-07T20:13:03.391Z,19.40
2022-09-07T20:15:30.386Z,19.40
2022-09-07T20:17:57.482Z,19.30
2022-09-07T20:20:24.608Z,19.40
2022-09-07T20:22:51.643Z,19.30
2022-09-07T20:25:18.588Z,19.30
2022-09-07T20:27:45.534Z,19.30
2022-09-07T20:30:12.726Z,19.30
2022-09-07T20:32:39.736Z,19.20
2022-09-07T20:35:07.033Z,19.30
2022-09-07T20:37:34.271Z,19.30
2022-09-07T20:40:01.286Z,19.30
2022-09-07T20:42:28.229Z,19.30
2022-09-07T20:44:55.139Z,19.30
2022-09-07T20:47:23.212Z,18.80
2022-09-07T20:49:52.229Z,18.30
2022-09-07T20:52:19.306Z,17.90
2022-09-07T20:54:46.256Z,17.40
2022-09-07T20:57:13.421Z,17.10
2022-09-07T20:59:40.492Z,17.00
2022-09-07T21:02:09.922Z,16.80
2022-09-07T21:04:36.973Z,16.70
2022-09-07T21:07:04.295Z,16.50
2022-09-07T21:09:31.291Z,16.50
2022-09-07T21:12:00.125Z,16.50
2022-09-07T21:14:27.878Z,16.60
2022-09-07T21:16:57.262Z,16.60
2022-09-07T21:19:24.315Z,16.50
2022-09-07T21:21:51.953Z,16.50
2022-09-07T21:24:20.558Z,16.50
2022-09-07T21:26:51.169Z,16.60
2022-09-07T21:29:20.310Z,16.70
2022-09-07T21:31:47.581Z,16.80
2022-09-07T21:34:17.383Z,16.80
2022-09-07T21:36:47.274Z,16.80
2022-09-07T21:39:15.129Z,16.80
2022-09-07T21:41:43.513Z,16.70
2022-09-07T21:44:14.571Z,16.70
2022-09-07T21:46:42.322Z,16.60
2022-09-07T21:49:09.693Z,16.60
2022-09-07T21:51:39.900Z,16.60
2022-09-07T21:54:06.974Z,16.50
2022-09-07T21:56:33.988Z,16.50
2022-09-07T21:59:02.063Z,16.50
2022-09-07T22:01:29.321Z,16.30
2022-09-07T22:03:58.004Z,16.30
2022-09-07T22:06:28.047Z,16.30
2022-09-07T22:08:55.853Z,16.20
2022-09-07T22:11:23.575Z,16.30
2022-09-07T22:13:55.647Z,16.30
2022-09-07T22:16:22.717Z,16.30
2022-09-07T22:18:49.829Z,16.30
2022-09-07T22:21:21.768Z,16.40
2022-09-07T22:23:50.066Z,16.40
2022-09-07T22:26:19.637Z,16.30
2022-09-07T22:28:46.836Z,16.30
2022-09-07T22:31:16.704Z,16.30
2022-09-07T22:33:43.827Z,16.30
2022-09-07T22:36:26.871Z,16.40
2022-09-07T22:38:56.199Z,16.30
2022-09-07T22:41:30.818Z,16.30
2022-09-07T22:43:57.978Z,16.30
2022-09-07T22:46:26.322Z,16.30
2022-09-07T22:48:57.312Z,16.30
2022-09-07T22:51:25.299Z,16.30
2022-09-07T22:53:52.312Z,16.30
2022-09-07T22:56:21.234Z,16.30
2022-09-07T22:58:50.042Z,16.20
2022-09-07T23:01:17.251Z,16.20
2022-09-07T23:03:44.495Z,16.10
2022-09-07T23:06:32.562Z,16.00
2022-09-07T23:09:01.270Z,16.10
2022-09-07T23:11:28.524Z,16.00
2022-09-07T23:13:57.507Z,16.10
2022-09-07T23:16:24.683Z,16.20
2022-09-07T23:18:51.817Z,16.30
2022-09-07T23:21:18.927Z,16.30
2022-09-07T23:23:52.837Z,16.30
2022-09-07T23:26:20.998Z,16.30
2022-09-07T23:28:52.572Z,16.20
2022-09-07T23:31:19.829Z,16.20
2022-09-07T23:33:47.001Z,16.20
2022-09-07T23:36:13.969Z,16.20
2022-09-07T23:38:40.951Z,16.20
2022-09-07T23:41:07.884Z,16.30
2022-09-07T23:43:35.024Z,16.30
2022-09-07T23:46:02.096Z,16.30
2022-09-07T23:48:29.083Z,16.40
2022-09-07T23:50:56.028Z,16.40
2022-09-07T23:53:23.218Z,16.40
2022-09-07T23:55:50.867Z,16.30
2022-09-07T23:58:18.332Z,16.30
